createdAt,value
2022-08-07T00:04:06.132Z,0.45
2022-08-07T00:09:16.897Z,0.60
2022-08-07T00:14:25.574Z,0.35
2022-08-07T00:19:59.670Z,0.50
2022-08-07T00:24:53.986Z,0.47
2022-08-07T00:29:55.684Z,0.50
2022-08-07T00:34:58.264Z,0.50
2022-08-07T00:39:59.917Z,0.60
2022-08-07T00:45:02.220Z,0.60
2022-08-07T00:50:20.352Z,0.60
2022-08-07T00:56:03.371Z,0.60
2022-08-07T01:00:53.765Z,0.50
2022-08-07T01:05:56.678Z,0.65
2022-08-07T01:10:58.486Z,0.40
2022-08-07T01:16:30.519Z,0.47
2022-08-07T01:21:34.295Z,0.50
2022-08-07T01:26:39.169Z,0.50
2022-08-07T01:31:48.330Z,0.50
2022-08-07T01:36:57.605Z,0.47
2022-08-07T01:42:37.910Z,0.50
2022-08-07T01:48:20.199Z,0.50
2022-08-07T01:52:49.707Z,0.57
2022-08-07T01:58:06.516Z,0.82
2022-08-07T02:03:32.117Z,0.40
2022-08-07T02:08:49.155Z,0.30
2022-08-07T02:14:02.528Z,0.50
2022-08-07T02:20:05.718Z,0.43
2022-08-07T02:24:33.247Z,0.30
2022-08-07T02:29:48.627Z,0.30
2022-08-07T02:35:00.757Z,0.50
2022-08-07T02:40:30.009Z,0.70
2022-08-07T02:45:59.001Z,0.40
2022-08-07T02:50:55.564Z,0.45
2022-08-07T02:56:03.519Z,0.50
2022-08-07T03:01:18.762Z,0.50
2022-08-07T03:06:34.878Z,0.37
2022-08-07T03:11:51.756Z,0.47
2022-08-07T03:17:00.550Z,0.63
2022-08-07T03:22:08.211Z,0.55
2022-08-07T03:27:30.858Z,0.50
2022-08-07T03:32:57.045Z,0.52
2022-08-07T03:43:10.118Z,0.60
2022-08-07T03:48:20.778Z,0.68
2022-08-07T03:53:50.238Z,0.50
2022-08-07T03:59:06.695Z,0.50
2022-08-07T04:04:08.983Z,0.70
2022-08-07T04:09:23.032Z,0.60
2022-08-07T04:14:37.496Z,0.68
2022-08-07T04:19:52.154Z,0.60
2022-08-07T04:24:56.212Z,0.52
2022-08-07T04:30:01.990Z,0.73
2022-08-07T04:35:21.864Z,0.80
2022-08-07T04:40:26.641Z,0.50
2022-08-07T04:46:02.159Z,0.70
2022-08-07T04:51:16.333Z,0.80
2022-08-07T04:58:11.901Z,0.80
2022-08-07T05:02:02.507Z,1.70
2022-08-07T05:07:30.585Z,2.08
2022-08-07T05:12:51.554Z,2.10
2022-08-07T05:18:00.927Z,1.40
2022-08-07T05:23:16.052Z,1.10
2022-08-07T05:28:23.318Z,1.00
2022-08-07T05:33:31.448Z,1.00
2022-08-07T05:39:00.225Z,1.08
2022-08-07T05:44:12.298Z,1.45
2022-08-07T05:49:19.519Z,1.00
2022-08-07T05:54:30.623Z,1.27
2022-08-07T05:59:57.251Z,0.70
2022-08-07T06:05:10.922Z,0.93
2022-08-07T06:10:18.928Z,0.80
2022-08-07T06:15:39.101Z,0.90
2022-08-07T06:20:50.363Z,0.80
2022-08-07T06:26:14.271Z,0.80
2022-08-07T06:31:17.076Z,0.82
2022-08-07T06:36:35.007Z,0.60
2022-08-07T06:42:00.804Z,0.82
2022-08-07T06:47:27.055Z,0.77
2022-08-07T06:52:36.493Z,0.70
2022-08-07T06:57:51.999Z,0.80
2022-08-07T07:03:00.913Z,0.80
2022-08-07T07:08:06.835Z,0.70
2022-08-07T07:13:55.606Z,0.93
2022-08-07T07:19:11.210Z,0.65
2022-08-07T07:24:23.966Z,0.70
2022-08-07T07:29:56.635Z,0.95
2022-08-07T07:34:59.539Z,0.70
2022-08-07T07:40:14.951Z,0.60
2022-08-07T07:50:35.167Z,0.70
2022-08-07T07:55:45.346Z,0.68
2022-08-07T08:00:58.662Z,0.73
2022-08-07T08:06:02.075Z,0.65
2022-08-07T08:11:08.378Z,0.60
2022-08-07T08:16:19.600Z,0.50
2022-08-07T08:27:09.356Z,0.80
2022-08-07T08:32:18.287Z,0.55
2022-08-07T08:38:00.934Z,0.50
2022-08-07T08:42:51.564Z,0.40
2022-08-07T08:48:10.750Z,0.43
2022-08-07T08:53:25.753Z,0.40
2022-08-07T08:58:33.621Z,0.40
2022-08-07T09:03:52.989Z,0.38
2022-08-07T09:09:21.147Z,0.30
2022-08-07T09:14:39.101Z,0.40
2022-08-07T09:19:59.067Z,0.30
2022-08-07T09:25:21.755Z,0.40
2022-08-07T09:30:33.291Z,0.30
2022-08-07T09:36:00.893Z,0.40
2022-08-07T09:41:36.232Z,0.30
2022-08-07T09:47:51.888Z,0.32
2022-08-07T09:52:51.562Z,0.50
2022-08-07T09:57:56.242Z,0.30
2022-08-07T10:04:05.602Z,0.40
2022-08-07T10:09:05.570Z,0.32
2022-08-07T10:14:30.325Z,0.30
2022-08-07T10:19:43.582Z,0.40
2022-08-07T10:25:11.302Z,0.20
2022-08-07T10:30:42.199Z,0.25
2022-08-07T10:36:11.269Z,0.40
2022-08-07T10:41:52.310Z,0.30
2022-08-07T10:47:14.181Z,0.20
2022-08-07T10:52:31.890Z,0.20
2022-08-07T10:58:33.099Z,0.20
2022-08-07T11:03:54.958Z,0.20
2022-08-07T11:09:11.659Z,0.38
2022-08-07T11:14:44.285Z,0.30
2022-08-07T11:20:14.634Z,0.17
2022-08-07T11:25:30.615Z,0.20
2022-08-07T11:30:52.311Z,0.20
2022-08-07T11:36:30.796Z,0.17
2022-08-07T11:42:02.050Z,0.20
2022-08-07T11:47:13.894Z,0.25
2022-08-07T11:53:06.656Z,0.20
2022-08-07T11:58:33.705Z,0.15
2022-08-07T12:03:41.834Z,0.32
2022-08-07T12:09:01.669Z,0.30
2022-08-07T12:14:19.086Z,0.20
2022-08-07T12:19:56.514Z,0.20
2022-08-07T12:26:21.523Z,0.30
2022-08-07T12:30:53.184Z,0.45
2022-08-07T12:35:57.747Z,0.20
2022-08-07T12:41:02.687Z,0.30
2022-08-07T12:46:26.617Z,0.30
2022-08-07T12:51:52.710Z,0.40
2022-08-07T12:57:10.342Z,0.30
2022-08-07T13:02:50.297Z,0.40
2022-08-07T13:08:13.392Z,0.30
2022-08-07T13:13:59.594Z,0.30
2022-08-07T13:19:18.121Z,0.50
2022-08-07T13:24:29.417Z,0.30
2022-08-07T13:29:56.189Z,0.30
2022-08-07T13:35:59.637Z,0.20
2022-08-07T13:46:25.478Z,0.20
2022-08-07T13:52:22.318Z,0.22
2022-08-07T13:56:59.744Z,0.30
2022-08-07T14:02:10.424Z,0.50
2022-08-07T14:07:13.464Z,0.30
2022-08-07T14:12:41.492Z,0.40
2022-08-07T14:18:12.689Z,0.38
2022-08-07T14:23:58.937Z,0.30
2022-08-07T14:28:56.002Z,0.17
2022-08-07T14:34:01.906Z,0.40
2022-08-07T14:39:12.480Z,0.30
2022-08-07T14:44:33.723Z,0.22
2022-08-07T14:49:57.450Z,0.28
2022-08-07T14:55:01.539Z,0.30
2022-08-07T15:00:06.981Z,0.20
2022-08-07T15:05:20.617Z,0.47
2022-08-07T15:10:29.814Z,0.43
2022-08-07T15:15:40.619Z,0.30
2022-08-07T15:20:54.981Z,0.30
2022-08-07T15:25:59.800Z,0.30
2022-08-07T15:31:05.849Z,0.40
2022-08-07T15:36:09.405Z,0.20
2022-08-07T15:46:51.762Z,0.40
2022-08-07T15:57:00.870Z,0.50
2022-08-07T16:02:05.317Z,0.28
2022-08-07T16:08:32.499Z,0.43
2022-08-07T16:12:40.554Z,0.40
2022-08-07T16:18:50.004Z,0.20
2022-08-07T16:24:00.599Z,0.40
2022-08-07T16:30:10.125Z,0.35
2022-08-07T16:35:51.663Z,0.35
2022-08-07T16:41:04.541Z,0.30
2022-08-07T16:47:06.815Z,0.50
2022-08-07T16:52:51.731Z,0.38
2022-08-07T16:58:02.958Z,0.40
2022-08-07T17:03:57.695Z,0.35
2022-08-07T17:09:14.282Z,0.30
2022-08-07T17:14:33.009Z,0.68
2022-08-07T17:20:02.681Z,0.32
2022-08-07T17:25:18.458Z,0.40
2022-08-07T17:30:27.154Z,0.30
2022-08-07T17:35:57.444Z,0.50
2022-08-07T17:42:04.786Z,0.50
2022-08-07T17:46:53.239Z,0.88
2022-08-07T17:52:10.615Z,0.55
2022-08-07T17:57:59.175Z,0.60
2022-08-07T18:04:03.964Z,0.50
2022-08-07T18:09:05.834Z,0.50
2022-08-07T18:14:16.483Z,0.80
2022-08-07T18:21:09.769Z,1.00
2022-08-07T18:24:59.004Z,0.80
2022-08-07T18:30:31.391Z,0.63
2022-08-07T18:35:50.281Z,0.50
2022-08-07T18:41:45.048Z,0.70
2022-08-07T18:47:06.380Z,0.70
2022-08-07T18:52:53.064Z,0.70
2022-08-07T18:58:14.349Z,0.85
2022-08-07T19:03:37.902Z,0.80
2022-08-07T19:08:46.391Z,0.80
2022-08-07T19:14:11.661Z,0.93
2022-08-07T19:19:37.613Z,0.95
2022-08-07T19:24:44.673Z,1.05
2022-08-07T19:31:05.119Z,0.90
2022-08-07T19:35:19.314Z,0.75
2022-08-07T19:40:34.688Z,0.82
2022-08-07T19:46:09.286Z,1.30
2022-08-07T19:51:05.196Z,1.10
2022-08-07T19:57:51.611Z,1.13
2022-08-07T20:01:57.986Z,1.30
2022-08-07T20:07:00.833Z,1.42
2022-08-07T20:12:31.371Z,1.10
2022-08-07T20:17:26.735Z,1.38
2022-08-07T20:22:34.491Z,1.25
2022-08-07T20:27:46.440Z,1.25
2022-08-07T20:32:54.724Z,1.45
2022-08-07T20:37:59.439Z,1.00
2022-08-07T20:43:14.692Z,1.30
2022-08-07T20:48:30.304Z,1.67
2022-08-07T20:54:03.370Z,1.70
2022-08-07T20:59:01.374Z,1.20
2022-08-07T21:04:22.091Z,1.52
2022-08-07T21:09:52.398Z,1.33
2022-08-07T21:15:05.933Z,1.35
2022-08-07T21:20:26.719Z,1.38
2022-08-07T21:25:42.644Z,1.35
2022-08-07T21:31:02.937Z,1.13
2022-08-07T21:36:11.789Z,1.33
2022-08-07T21:41:38.224Z,1.55
2022-08-07T21:47:12.460Z,1.13
2022-08-07T21:52:33.572Z,1.20
2022-08-07T21:58:12.635Z,1.30
2022-08-07T22:03:46.242Z,1.02
2022-08-07T22:08:58.787Z,1.20
2022-08-07T22:14:05.219Z,1.10
2022-08-07T22:19:29.994Z,0.90
2022-08-07T22:24:41.199Z,1.23
2022-08-07T22:29:55.556Z,1.20
2022-08-07T22:35:02.091Z,1.10
2022-08-07T22:40:22.656Z,1.10
2022-08-07T22:46:21.764Z,1.00
2022-08-07T22:51:43.205Z,1.17
2022-08-07T22:57:05.249Z,1.30
2022-08-07T23:02:13.668Z,1.10
2022-08-07T23:07:42.128Z,1.15
2022-08-07T23:13:14.491Z,1.10
2022-08-07T23:19:13.755Z,1.20
2022-08-07T23:24:50.714Z,0.98
2022-08-07T23:30:38.933Z,0.98
2022-08-07T23:35:55.586Z,0.82
2022-08-07T23:42:01.798Z,1.10
2022-08-07T23:47:22.752Z,1.02
2022-08-07T23:53:01.106Z,0.80
2022-08-07T23:58:18.495Z,1.40
